Time;durP1;ratioP1;P1;durP2;ratioP2;P2;SDS_P1;SDS_P2;PMS_P1;PMS_P2;Temp;Humidity;BMP_temperature;BMP_pressure;BME280_temperature;BME280_humidity;BME280_pressure;Samples;Min_cycle;Max_cycle;Signal;HPM_P1;HPM_P2
2021/09/26 00:00:59;;;;;;;9.80;8.85;;;;;;;16.90;70.46;100964.63;5068536;28;20028;-42
2021/09/26 00:03:25;;;;;;;9.68;8.80;;;;;;;16.90;70.39;100964.63;5074878;28;20030;-42
2021/09/26 00:05:51;;;;;;;10.43;9.43;;;;;;;16.88;70.25;100959.34;5070488;28;20055;-42
2021/09/26 00:08:17;;;;;;;9.80;8.90;;;;;;;16.88;70.36;100963.81;5069951;28;20385;-42
2021/09/26 00:10:43;;;;;;;10.15;9.15;;;;;;;16.88;70.33;100961.16;5057625;28;20024;-42
2021/09/26 00:13:08;;;;;;;10.50;9.25;;;;;;;16.88;70.40;100964.66;5070573;28;20024;-42
2021/09/26 00:15:34;;;;;;;9.95;9.05;;;;;;;16.87;70.32;100970.06;5072658;28;20035;-42
2021/09/26 00:18:00;;;;;;;9.52;8.63;;;;;;;16.87;70.35;100975.41;5069237;28;20501;-42
2021/09/26 00:20:26;;;;;;;10.35;9.45;;;;;;;16.86;70.34;100965.63;5059540;28;20025;-42
2021/09/26 00:22:52;;;;;;;9.55;8.70;;;;;;;16.86;70.29;100970.97;5074557;28;20024;-42
2021/09/26 00:25:19;;;;;;;11.15;10.10;;;;;;;16.86;70.24;100970.97;5073248;28;20034;-42
2021/09/26 00:27:45;;;;;;;9.13;8.30;;;;;;;16.85;70.24;100966.56;5066961;28;20024;-42
2021/09/26 00:30:14;;;;;;;9.82;9.00;;;;;;;16.85;70.31;100970.09;5071535;28;20069;-42
2021/09/26 00:32:41;;;;;;;10.55;9.55;;;;;;;16.84;70.29;100973.66;5073890;28;20033;-42
2021/09/26 00:35:07;;;;;;;10.85;9.82;;;;;;;16.84;70.30;100972.81;5069167;28;20363;-42
2021/09/26 00:37:33;;;;;;;10.85;9.80;;;;;;;16.77;70.24;100961.47;5070248;28;20055;-42
2021/09/26 00:39:59;;;;;;;10.48;9.38;;;;;;;16.83;70.19;100971.06;5053242;28;20482;-42
2021/09/26 00:42:25;;;;;;;10.23;9.32;;;;;;;16.83;70.21;100960.41;5071223;28;20047;-42
2021/09/26 00:44:51;;;;;;;10.50;9.50;;;;;;;16.82;70.30;100964.88;5073136;28;20021;-42
2021/09/26 00:47:17;;;;;;;10.32;9.35;;;;;;;16.82;70.40;100956.00;5074307;28;20029;-42
2021/09/26 00:49:43;;;;;;;10.05;9.15;;;;;;;16.80;70.27;100959.59;5071330;28;20036;-42
2021/09/26 00:52:08;;;;;;;10.48;9.48;;;;;;;16.81;70.31;100957.81;5071522;28;20025;-42
2021/09/26 00:54:38;;;;;;;10.43;9.45;;;;;;;16.80;70.25;100964.91;5072337;28;20017;-42
2021/09/26 00:57:04;;;;;;;11.15;10.07;;;;;;;16.80;70.39;100967.56;5063603;28;20086;-41
2021/09/26 00:59:30;;;;;;;10.77;9.85;;;;;;;16.79;70.20;100965.84;5056547;28;20032;-42
2021/09/26 01:01:56;;;;;;;9.88;8.98;;;;;;;16.79;70.26;100971.16;5065877;28;20052;-42
2021/09/26 01:04:22;;;;;;;9.88;8.98;;;;;;;16.80;70.24;100975.56;5074493;28;20039;-42
2021/09/26 01:06:55;;;;;;;10.00;8.98;;;;;;;16.79;70.13;100976.50;5075000;28;20027;-42
2021/09/26 01:09:28;;;;;;;11.07;9.98;;;;;;;16.78;70.17;100974.72;5052778;28;20025;-42
2021/09/26 01:12:02;;;;;;;9.93;9.13;;;;;;;16.76;70.07;100971.25;5076477;28;20028;-42
2021/09/26 01:15:00;;;;;;;10.15;9.15;;;;;;;16.77;70.13;100962.34;5074789;28;20028;-42
2021/09/26 01:17:32;;;;;;;9.88;8.88;;;;;;;16.76;70.19;100955.28;5054185;28;20052;-41
2021/09/26 01:20:35;;;;;;;10.02;9.13;;;;;;;16.75;70.19;100958.88;5074794;28;20111;-42
2021/09/26 01:23:04;;;;;;;9.95;9.05;;;;;;;16.75;70.10;100965.97;5071838;28;20032;-43
2021/09/26 01:25:57;;;;;;;10.32;9.20;;;;;;;16.75;70.20;100964.19;5075279;28;20380;-42
2021/09/26 01:28:57;;;;;;;10.15;9.15;;;;;;;16.74;70.16;100967.75;5058807;28;20066;-42
2021/09/26 01:31:32;;;;;;;10.73;9.68;;;;;;;16.73;70.20;100966.00;5072156;28;20056;-42
2021/09/26 01:34:03;;;;;;;10.63;9.63;;;;;;;16.73;70.11;100962.47;5070812;28;20028;-42
2021/09/26 01:36:41;;;;;;;9.93;9.02;;;;;;;16.72;70.05;100969.59;5053807;28;20146;-42
2021/09/26 01:39:08;;;;;;;10.07;9.13;;;;;;;16.72;70.10;100964.28;5075080;28;20120;-41
2021/09/26 01:41:40;;;;;;;10.43;9.48;;;;;;;16.71;70.00;100975.88;5074188;28;20021;-42
2021/09/26 01:44:14;;;;;;;10.65;9.65;;;;;;;16.71;70.14;100978.53;5055694;28;20024;-42
2021/09/26 01:46:43;;;;;;;9.63;8.73;;;;;;;16.70;70.11;100970.56;5060781;28;20043;-42
2021/09/26 01:49:21;;;;;;;9.90;8.90;;;;;;;16.70;70.13;100978.56;5059089;28;20016;-42
2021/09/26 01:51:47;;;;;;;9.45;8.55;;;;;;;16.69;70.09;100980.34;5041034;28;20047;-42
2021/09/26 01:54:16;;;;;;;9.90;9.00;;;;;;;16.69;70.14;100980.34;5061130;28;20017;-42
2021/09/26 01:56:43;;;;;;;10.52;9.63;;;;;;;16.70;70.05;100986.56;5060440;28;20162;-42
2021/09/26 01:59:12;;;;;;;9.18;8.38;;;;;;;16.68;70.01;100983.94;5068121;28;20024;-42
2021/09/26 02:01:40;;;;;;;9.75;8.85;;;;;;;16.68;70.04;100984.78;5057775;28;20039;-42
2021/09/26 02:04:06;;;;;;;10.25;9.35;;;;;;;16.68;69.99;100978.59;5073578;28;20021;-42
2021/09/26 02:06:38;;;;;;;8.90;8.20;;;;;;;16.68;69.99;100989.25;5074609;28;20024;-42
2021/09/26 02:09:05;;;;;;;10.88;9.88;;;;;;;16.66;70.02;100983.09;5059113;28;20393;-42
2021/09/26 02:11:32;;;;;;;10.20;9.30;;;;;;;16.65;69.98;100979.59;5062198;28;20379;-42
2021/09/26 02:13:59;;;;;;;10.68;9.68;;;;;;;16.66;70.05;100985.75;5061390;28;20020;-42
2021/09/26 02:16:25;;;;;;;9.27;8.48;;;;;;;16.65;69.97;100984.03;5071786;28;20028;-42
2021/09/26 02:18:54;;;;;;;10.38;9.45;;;;;;;16.65;69.83;100989.34;5057084;28;20088;-42
2021/09/26 02:21:20;;;;;;;10.10;9.20;;;;;;;16.64;69.87;100979.63;5057964;28;20115;-42
2021/09/26 02:23:46;;;;;;;12.05;10.95;;;;;;;16.63;69.83;100984.06;5038066;28;20055;-42
2021/09/26 02:26:12;;;;;;;10.65;9.55;;;;;;;16.63;69.74;100975.19;5043913;28;20028;-42
2021/09/26 02:28:40;;;;;;;10.32;9.32;;;;;;;16.63;69.95;100988.50;5056445;28;20585;-42
2021/09/26 02:31:07;;;;;;;9.75;8.85;;;;;;;16.62;69.78;100976.13;5070572;28;20031;-42
2021/09/26 02:33:34;;;;;;;9.25;8.45;;;;;;;16.62;69.76;100992.09;5068827;28;20024;-42
2021/09/26 02:36:00;;;;;;;9.38;8.57;;;;;;;16.60;69.79;100994.81;5074458;28;20051;-42
2021/09/26 02:38:26;;;;;;;10.30;8.95;;;;;;;16.60;69.73;100972.66;5075786;28;20398;-43
2021/09/26 02:40:58;;;;;;;9.82;8.93;;;;;;;16.60;69.71;100988.63;5060789;28;20031;-42
2021/09/26 02:43:34;;;;;;;10.85;9.80;;;;;;;16.60;69.67;100983.31;5073145;28;20048;-42
2021/09/26 02:46:05;;;;;;;9.45;8.57;;;;;;;16.59;69.72;100981.53;5073815;28;20082;-42
2021/09/26 02:48:32;;;;;;;11.40;10.15;;;;;;;16.57;69.75;100981.56;5064007;28;20665;-42
2021/09/26 02:50:58;;;;;;;9.77;8.88;;;;;;;16.58;69.64;100971.81;5050401;28;20025;-42
2021/09/26 02:53:26;;;;;;;10.18;9.18;;;;;;;16.57;69.61;100975.41;5054140;28;20525;-42
2021/09/26 02:55:54;;;;;;;10.05;9.15;;;;;;;16.57;69.64;100980.72;5077668;28;20032;-41
2021/09/26 02:58:21;;;;;;;9.60;8.73;;;;;;;16.54;69.37;100966.56;5074743;28;20425;-41
2021/09/26 03:00:48;;;;;;;9.10;8.25;;;;;;;16.55;69.67;100967.44;5073832;28;20106;-42
2021/09/26 03:03:17;;;;;;;9.10;8.30;;;;;;;16.53;69.72;100970.16;5061242;28;20094;-42
2021/09/26 03:05:45;;;;;;;9.18;8.38;;;;;;;16.53;69.62;100967.50;5071732;28;20026;-42
2021/09/26 03:08:12;;;;;;;9.55;8.65;;;;;;;16.52;69.70;100979.06;5072314;28;20035;-42
2021/09/26 03:10:40;;;;;;;8.02;7.43;;;;;;;16.53;69.62;100953.28;5072027;28;20472;-42
2021/09/26 03:13:06;;;;;;;8.13;7.38;;;;;;;16.53;69.52;100953.28;5072494;28;20082;-42
2021/09/26 03:15:32;;;;;;;9.50;8.60;;;;;;;16.52;69.63;100943.56;5074553;28;20035;-42
2021/09/26 03:17:58;;;;;;;8.52;7.78;;;;;;;16.51;69.69;100941.84;5070421;28;20436;-42
2021/09/26 03:20:24;;;;;;;9.13;8.18;;;;;;;16.50;69.54;100937.41;5073512;28;20470;-42
2021/09/26 03:22:50;;;;;;;8.50;7.80;;;;;;;16.50;69.51;100943.63;5066213;28;20024;-41
2021/09/26 03:25:16;;;;;;;8.52;7.63;;;;;;;16.49;69.64;100927.69;5070075;28;20060;-42
2021/09/26 03:27:42;;;;;;;8.52;7.60;;;;;;;16.48;69.59;100924.16;5071231;28;20020;-42
2021/09/26 03:30:09;;;;;;;9.23;8.32;;;;;;;16.48;69.53;100923.28;5053352;28;20027;-42
2021/09/26 03:32:34;;;;;;;8.18;7.45;;;;;;;16.47;69.66;100930.38;5068093;28;20099;-42
2021/09/26 03:35:01;;;;;;;8.05;7.32;;;;;;;16.47;69.49;100933.06;5068536;28;20427;-42
2021/09/26 03:37:27;;;;;;;8.10;7.40;;;;;;;16.48;69.45;100933.94;5071601;28;20020;-42
2021/09/26 03:39:53;;;;;;;8.20;7.40;;;;;;;16.46;69.54;100926.00;5068169;28;20029;-42
2021/09/26 03:42:18;;;;;;;8.85;8.05;;;;;;;16.45;69.42;100928.69;5054907;28;20047;-42
2021/09/26 03:44:44;;;;;;;9.00;8.15;;;;;;;16.47;69.32;100934.84;5073716;28;20051;-42
2021/09/26 03:47:10;;;;;;;10.18;9.27;;;;;;;16.44;69.14;100933.13;5072324;28;20035;-42
2021/09/26 03:49:36;;;;;;;8.68;7.88;;;;;;;16.44;69.34;100937.59;5071759;28;20038;-42
2021/09/26 03:52:03;;;;;;;8.18;7.40;;;;;;;16.43;69.36;100928.75;5070817;28;20016;-42
2021/09/26 03:54:28;;;;;;;9.35;8.55;;;;;;;16.43;69.42;100928.75;5074248;28;20031;-42
2021/09/26 03:56:54;;;;;;;8.60;7.88;;;;;;;16.41;69.39;100923.47;5072325;28;20032;-42
2021/09/26 03:59:20;;;;;;;8.50;7.70;;;;;;;16.43;69.26;100926.06;5070319;28;20521;-42
2021/09/26 04:01:46;;;;;;;9.77;8.90;;;;;;;16.42;69.38;100921.69;5058119;28;20532;-42
2021/09/26 04:04:13;;;;;;;8.38;7.47;;;;;;;16.40;69.47;100915.50;5070376;28;20035;-42
2021/09/26 04:06:38;;;;;;;10.13;9.05;;;;;;;16.41;69.47;100917.28;5071867;28;20032;-42
2021/09/26 04:09:06;;;;;;;9.80;8.80;;;;;;;16.40;69.05;100920.84;5071077;28;20036;-42
2021/09/26 04:11:32;;;;;;;8.63;7.88;;;;;;;16.40;69.42;100928.81;5055101;28;20028;-42
2021/09/26 04:14:00;;;;;;;8.90;8.10;;;;;;;16.39;69.29;100941.28;5069877;28;20496;-42
2021/09/26 04:16:26;;;;;;;9.45;8.48;;;;;;;16.38;69.20;100936.00;5069314;28;20509;-42
2021/09/26 04:18:52;;;;;;;8.02;7.28;;;;;;;16.38;69.16;100936.84;5067525;28;20036;-42
2021/09/26 04:21:18;;;;;;;7.78;7.07;;;;;;;16.37;69.17;100932.44;5057624;28;20029;-42
2021/09/26 04:23:44;;;;;;;10.68;9.68;;;;;;;16.36;69.22;100932.50;5070172;28;20489;-42
2021/09/26 04:26:10;;;;;;;8.70;7.88;;;;;;;16.35;69.25;100923.66;5068433;28;20068;-42
2021/09/26 04:28:36;;;;;;;8.30;7.53;;;;;;;16.35;69.35;100923.66;5069285;28;20107;-42
2021/09/26 04:31:02;;;;;;;7.82;7.13;;;;;;;16.35;69.35;100917.44;5073489;28;20044;-42
2021/09/26 04:33:28;;;;;;;8.50;7.70;;;;;;;16.35;69.28;100914.78;5066945;28;20020;-42
2021/09/26 04:35:54;;;;;;;8.18;7.45;;;;;;;16.34;69.34;100915.72;5076993;28;20024;-42
2021/09/26 04:38:20;;;;;;;7.95;7.22;;;;;;;16.33;69.24;100913.94;5075731;28;20520;-42
2021/09/26 04:40:46;;;;;;;8.32;7.63;;;;;;;16.33;69.31;100908.63;5058351;28;20028;-42
2021/09/26 04:43:12;;;;;;;7.75;7.05;;;;;;;16.32;69.18;100912.22;5078817;28;20073;-42
2021/09/26 04:45:38;;;;;;;8.48;7.72;;;;;;;16.32;69.09;100912.22;5072416;28;20588;-42
2021/09/26 04:48:04;;;;;;;8.38;7.65;;;;;;;16.30;69.37;100917.56;5072895;28;20119;-42
2021/09/26 04:50:31;;;;;;;9.07;8.20;;;;;;;16.31;69.13;100905.16;5071272;28;20050;-42
2021/09/26 04:52:57;;;;;;;8.18;7.45;;;;;;;16.29;69.18;100908.75;5062043;28;20493;-42
2021/09/26 04:55:26;;;;;;;8.52;7.82;;;;;;;16.29;69.13;100914.06;5072255;28;20028;-43
2021/09/26 04:57:53;;;;;;;8.35;7.65;;;;;;;16.29;69.28;100914.06;5076402;28;20032;-42
2021/09/26 05:00:20;;;;;;;8.90;8.00;;;;;;;16.28;69.21;100909.63;5074705;28;20021;-42
2021/09/26 05:02:46;;;;;;;7.85;7.15;;;;;;;16.28;69.15;100903.47;5073122;28;20501;-42
2021/09/26 05:05:12;;;;;;;7.65;6.93;;;;;;;16.27;69.33;100899.91;5075985;28;20047;-42
2021/09/26 05:07:38;;;;;;;8.13;7.43;;;;;;;16.27;69.41;100905.25;5069594;28;20034;-42
2021/09/26 05:10:05;;;;;;;9.30;8.07;;;;;;;16.25;69.33;100900.88;5053623;28;20037;-42
2021/09/26 05:12:31;;;;;;;8.75;7.95;;;;;;;16.26;69.29;100913.25;5071077;28;20036;-42
2021/09/26 05:15:01;;;;;;;8.07;7.35;;;;;;;16.26;69.30;100929.22;5055821;28;20037;-42
2021/09/26 05:17:28;;;;;;;8.33;7.67;;;;;;;16.25;69.29;100917.72;5069879;28;20073;-42
2021/09/26 05:19:54;;;;;;;8.43;7.53;;;;;;;16.23;69.30;100911.56;5075768;28;20481;-42
2021/09/26 05:22:20;;;;;;;7.82;7.13;;;;;;;16.22;69.36;100907.19;5077122;28;20488;-42
2021/09/26 05:24:46;;;;;;;8.15;7.45;;;;;;;16.22;69.25;100920.47;5070181;28;20547;-42
2021/09/26 05:27:12;;;;;;;9.50;8.60;;;;;;;16.22;69.15;100920.47;5074782;28;20028;-42
2021/09/26 05:29:40;;;;;;;8.98;8.07;;;;;;;16.21;69.12;100910.72;5076512;28;20473;-42
2021/09/26 05:32:07;;;;;;;7.85;7.15;;;;;;;16.19;69.27;100917.91;5059042;28;20047;-43
2021/09/26 05:34:33;;;;;;;8.05;7.35;;;;;;;16.20;69.21;100930.28;5073988;28;20024;-42
2021/09/26 05:36:59;;;;;;;9.48;8.02;;;;;;;16.19;69.37;100925.88;5073865;28;20428;-42
2021/09/26 05:39:25;;;;;;;8.10;7.50;;;;;;;16.20;69.29;100914.31;5072933;28;20043;-42
2021/09/26 05:41:52;;;;;;;7.75;7.15;;;;;;;16.19;69.21;100917.91;5072375;28;20032;-42
2021/09/26 05:44:18;;;;;;;7.68;7.00;;;;;;;16.18;69.39;100931.25;5077156;28;20033;-42
2021/09/26 05:46:44;;;;;;;8.38;7.57;;;;;;;16.18;69.17;100924.16;5067569;28;20090;-42
2021/09/26 05:49:10;;;;;;;8.80;7.95;;;;;;;16.16;69.14;100924.19;5073593;28;20031;-42
2021/09/26 05:51:36;;;;;;;8.13;7.43;;;;;;;16.15;69.17;100918.91;5073670;28;20038;-43
2021/09/26 05:54:02;;;;;;;7.88;7.18;;;;;;;16.16;69.13;100923.31;5055677;28;20043;-43
2021/09/26 05:56:28;;;;;;;9.13;8.23;;;;;;;16.15;69.16;100910.94;5054522;28;20105;-42
2021/09/26 05:58:54;;;;;;;8.30;7.45;;;;;;;16.13;69.25;100894.13;5068933;28;20023;-43
2021/09/26 06:01:20;;;;;;;9.00;8.13;;;;;;;16.13;68.82;100896.78;5073685;28;20624;-43
2021/09/26 06:03:45;;;;;;;8.65;7.80;;;;;;;16.12;69.03;100905.69;5057405;28;20445;-42
2021/09/26 06:06:11;;;;;;;7.95;7.22;;;;;;;16.12;69.14;100911.00;5055575;28;20028;-43
2021/09/26 06:08:37;;;;;;;8.65;7.75;;;;;;;16.11;69.19;100915.44;5069918;28;20046;-43
2021/09/26 06:11:03;;;;;;;8.60;7.80;;;;;;;16.12;69.15;100911.00;5059119;28;20024;-42
2021/09/26 06:13:29;;;;;;;8.90;8.10;;;;;;;16.11;69.09;100909.28;5070684;28;20406;-43
2021/09/26 06:15:54;;;;;;;9.77;8.77;;;;;;;16.10;69.12;100912.81;5062276;28;20566;-42
2021/09/26 06:18:20;;;;;;;8.77;7.97;;;;;;;16.08;69.25;100914.69;5075442;28;20025;-42
2021/09/26 06:20:47;;;;;;;9.50;8.50;;;;;;;16.08;69.07;100904.03;5071378;28;20025;-42
2021/09/26 06:23:13;;;;;;;8.63;7.75;;;;;;;16.08;69.21;100901.38;5068767;28;20095;-42
2021/09/26 06:25:40;;;;;;;9.10;8.30;;;;;;;16.07;69.17;100896.97;5055960;28;20025;-41
2021/09/26 06:28:06;;;;;;;8.65;7.95;;;;;;;16.06;69.26;100896.09;5074425;28;20032;-42
2021/09/26 06:30:32;;;;;;;8.98;8.02;;;;;;;16.06;69.16;100904.06;5076259;28;20028;-41
2021/09/26 06:32:58;;;;;;;9.30;8.40;;;;;;;16.07;69.10;100907.63;5071805;28;20082;-42
2021/09/26 06:35:24;;;;;;;8.73;7.95;;;;;;;16.06;69.24;100911.16;5073299;28;20024;-41
2021/09/26 06:37:50;;;;;;;9.32;8.25;;;;;;;16.05;69.14;100914.75;5071324;28;20039;-41
2021/09/26 06:40:16;;;;;;;9.00;8.10;;;;;;;16.05;69.16;100922.75;5072574;28;20025;-42
2021/09/26 06:42:42;;;;;;;10.02;8.98;;;;;;;16.04;69.17;100913.88;5072056;28;20390;-42
2021/09/26 06:45:08;;;;;;;9.25;8.40;;;;;;;16.02;69.16;100911.28;5069239;28;20073;-42
2021/09/26 06:47:35;;;;;;;8.38;7.60;;;;;;;16.03;69.21;100921.00;5074127;28;20032;-42
2021/09/26 06:50:01;;;;;;;8.57;7.78;;;;;;;16.02;69.21;100921.91;5072721;28;20435;-41
2021/09/26 06:52:26;;;;;;;9.43;8.55;;;;;;;16.02;69.20;100921.91;5058636;28;20028;-41
2021/09/26 06:54:52;;;;;;;9.50;8.60;;;;;;;16.02;69.20;100921.91;5074037;28;20017;-41
2021/09/26 06:57:18;;;;;;;8.38;7.57;;;;;;;16.02;69.12;100921.91;5069896;28;20029;-41
2021/09/26 06:59:44;;;;;;;9.07;8.27;;;;;;;16.04;69.25;100924.50;5074402;28;20035;-41
2021/09/26 07:02:10;;;;;;;8.60;7.80;;;;;;;16.03;69.18;100928.09;5072955;28;20025;-41
2021/09/26 07:04:36;;;;;;;8.60;7.70;;;;;;;16.02;69.23;100934.34;5075169;28;20031;-41
2021/09/26 07:07:02;;;;;;;8.93;7.93;;;;;;;16.01;69.20;100927.28;5073451;28;20082;-42
2021/09/26 07:09:28;;;;;;;8.88;8.07;;;;;;;15.99;69.14;100927.31;5064966;28;20030;-42
2021/09/26 07:11:54;;;;;;;9.30;8.50;;;;;;;16.01;69.15;100925.47;5068356;28;20024;-41
2021/09/26 07:14:20;;;;;;;8.95;8.05;;;;;;;16.00;69.25;100920.19;5069241;28;20528;-43
2021/09/26 07:16:46;;;;;;;9.35;8.45;;;;;;;16.01;69.18;100922.81;5074852;28;20428;-41
2021/09/26 07:19:20;;;;;;;8.80;8.00;;;;;;;16.00;69.08;100917.53;5064406;28;20398;-41
2021/09/26 07:21:45;;;;;;;9.25;8.35;;;;;;;16.00;69.06;100917.53;5031457;28;20022;-41
2021/09/26 07:24:11;;;;;;;9.07;8.27;;;;;;;15.99;69.06;100924.66;5046754;28;20398;-41
2021/09/26 07:26:37;;;;;;;9.60;8.60;;;;;;;15.99;69.21;100927.31;5047179;28;20036;-41
2021/09/26 07:29:03;;;;;;;9.57;8.68;;;;;;;15.98;69.14;100928.25;5046601;28;20519;-41
2021/09/26 07:31:29;;;;;;;10.32;9.43;;;;;;;15.99;69.16;100927.31;5047040;28;20029;-41
2021/09/26 07:33:54;;;;;;;8.70;7.90;;;;;;;15.98;69.29;100925.59;5049261;28;20029;-41
2021/09/26 07:36:20;;;;;;;8.68;7.90;;;;;;;15.99;69.19;100937.09;5046979;28;20406;-41
2021/09/26 07:38:46;;;;;;;8.93;8.10;;;;;;;15.97;69.29;100934.47;5044753;28;20032;-42
2021/09/26 07:41:12;;;;;;;9.32;8.43;;;;;;;15.98;69.34;100930.91;5047458;28;20060;-41
2021/09/26 07:43:38;;;;;;;9.15;8.18;;;;;;;15.98;69.26;100930.03;5044311;28;20029;-41
2021/09/26 07:46:03;;;;;;;9.27;8.38;;;;;;;15.98;69.26;100935.34;5046890;28;20044;-41
2021/09/26 07:48:29;;;;;;;9.68;8.77;;;;;;;15.97;69.42;100939.78;5048191;28;20024;-42
2021/09/26 07:50:55;;;;;;;9.80;8.80;;;;;;;15.97;69.27;100936.28;5043423;28;20029;-41
2021/09/26 07:53:21;;;;;;;9.35;8.48;;;;;;;15.96;69.35;100935.38;5041926;28;20482;-42
2021/09/26 07:55:51;;;;;;;9.68;8.77;;;;;;;15.97;69.48;100944.25;5046518;28;20056;-42
2021/09/26 07:58:17;;;;;;;8.37;7.63;;;;;;;15.95;69.27;100933.66;5046574;28;20021;-42
2021/09/26 08:00:43;;;;;;;9.73;8.73;;;;;;;15.94;69.42;100929.19;5046849;28;20060;-42
2021/09/26 08:03:09;;;;;;;9.63;8.73;;;;;;;15.94;69.48;100937.16;5044984;28;20021;-42
2021/09/26 08:05:35;;;;;;;9.43;8.52;;;;;;;15.95;69.39;100936.31;5046467;28;20021;-42
2021/09/26 08:08:00;;;;;;;9.32;8.43;;;;;;;15.96;69.53;100935.38;5045461;28;20029;-42
2021/09/26 08:10:26;;;;;;;9.10;8.18;;;;;;;15.95;69.51;100933.66;5046733;28;20044;-42
2021/09/26 08:12:52;;;;;;;9.63;8.82;;;;;;;15.95;69.54;100933.66;5042861;28;20514;-42
2021/09/26 08:15:18;;;;;;;9.98;9.07;;;;;;;15.95;69.48;100938.97;5045801;28;20120;-42
2021/09/26 08:17:44;;;;;;;9.07;8.18;;;;;;;15.95;69.62;100941.63;5046398;28;20177;-42
2021/09/26 08:20:13;;;;;;;9.52;8.63;;;;;;;15.97;69.70;100949.56;5046327;28;20053;-42
2021/09/26 08:22:39;;;;;;;9.35;8.40;;;;;;;15.95;69.65;100941.63;5045832;28;20031;-42
2021/09/26 08:25:06;;;;;;;9.45;8.52;;;;;;;15.96;69.78;100943.38;5044927;28;20021;-42
2021/09/26 08:27:33;;;;;;;8.73;7.93;;;;;;;15.95;69.72;100944.28;5046156;28;20025;-42
2021/09/26 08:29:59;;;;;;;9.98;8.40;;;;;;;15.96;69.76;100951.34;5034238;28;20030;-42
2021/09/26 08:32:25;;;;;;;10.02;9.07;;;;;;;15.96;69.79;100954.00;5030118;28;20040;-42
2021/09/26 08:34:51;;;;;;;8.88;7.95;;;;;;;15.96;69.94;100953.13;5032764;28;20495;-42
2021/09/26 08:37:17;;;;;;;8.50;7.80;;;;;;;15.95;70.04;100949.59;5030547;28;20065;-42
2021/09/26 08:39:43;;;;;;;9.38;8.48;;;;;;;15.95;70.03;100941.63;5031247;28;20067;-42
2021/09/26 08:42:09;;;;;;;9.13;8.23;;;;;;;15.96;69.93;100940.69;5032923;28;20087;-42
2021/09/26 08:44:34;;;;;;;10.55;9.65;;;;;;;15.96;70.22;100943.38;5031453;28;20060;-42
2021/09/26 08:47:00;;;;;;;9.23;8.35;;;;;;;15.95;70.22;100941.63;5031768;28;20033;-42
2021/09/26 08:49:27;;;;;;;10.10;9.20;;;;;;;15.96;70.13;100938.03;5031978;28;20511;-42
2021/09/26 08:51:53;;;;;;;10.60;9.50;;;;;;;15.96;70.34;100932.72;5031563;28;20056;-42
2021/09/26 08:54:20;;;;;;;9.77;8.88;;;;;;;15.96;70.38;100940.69;5032155;28;20148;-42
2021/09/26 08:56:46;;;;;;;10.75;9.65;;;;;;;15.97;70.56;100942.44;5032763;28;20432;-42
2021/09/26 08:59:14;;;;;;;9.77;8.82;;;;;;;15.97;70.47;100938.94;5030105;28;20391;-42
2021/09/26 09:01:40;;;;;;;10.63;9.63;;;;;;;15.97;70.51;100942.44;5032529;28;20053;-42
2021/09/26 09:04:06;;;;;;;10.30;9.35;;;;;;;15.98;70.62;100945.97;5029828;28;20037;-42
2021/09/26 09:06:43;;;;;;;11.50;10.05;;;;;;;15.98;70.54;100946.88;5029266;28;20103;-42
2021/09/26 09:09:20;;;;;;;9.32;8.52;;;;;;;15.97;70.37;100939.78;5029571;28;20410;-42
2021/09/26 09:12:02;;;;;;;10.27;9.27;;;;;;;15.98;70.51;100930.03;5031489;28;20104;-42
2021/09/26 09:14:49;;;;;;;10.25;9.30;;;;;;;15.97;70.43;100931.81;5031971;28;20026;-42
2021/09/26 09:17:34;;;;;;;11.07;9.95;;;;;;;15.98;70.61;100940.66;5031091;28;20037;-42
2021/09/26 09:20:25;;;;;;;10.45;9.45;;;;;;;15.98;70.83;100940.66;5028181;28;20022;-42
2021/09/26 09:22:52;;;;;;;;;;;;;;;15.99;70.48;100939.75;5030417;28;20517;-42
2021/09/26 09:25:32;;;;;;;10.95;9.85;;;;;;;15.99;70.64;100937.97;5027719;28;19951;-42
2021/09/26 09:27:58;;;;;;;10.20;9.20;;;;;;;15.97;70.63;100934.47;5031214;28;20021;-42
2021/09/26 09:30:40;;;;;;;11.00;9.90;;;;;;;15.97;70.49;100918.50;5029865;28;20075;-42
2021/09/26 09:33:06;;;;;;;10.77;9.88;;;;;;;15.97;70.54;100923.81;5028135;28;20025;-42
2021/09/26 09:35:40;;;;;;;9.90;9.00;;;;;;;15.98;70.83;100925.59;5029848;28;20053;-42
2021/09/26 09:38:06;;;;;;;10.45;9.15;;;;;;;16.00;70.77;100928.19;5028629;28;20155;-42
2021/09/26 09:40:32;;;;;;;10.80;9.70;;;;;;;15.98;70.82;100930.03;5030492;28;20029;-42
2021/09/26 09:42:58;;;;;;;11.23;10.23;;;;;;;15.98;70.75;100916.72;5031361;28;20586;-42
2021/09/26 09:45:34;;;;;;;10.30;9.20;;;;;;;15.99;70.98;100921.13;5030505;28;20061;-42
2021/09/26 09:48:21;;;;;;;12.90;10.75;;;;;;;15.99;71.05;100916.69;5029433;28;20025;-42
2021/09/26 09:50:59;;;;;;;10.55;9.45;;;;;;;15.99;71.22;100919.34;5031607;28;20043;-42
2021/09/26 09:53:31;;;;;;;10.73;9.80;;;;;;;15.97;71.02;100918.50;5030703;28;20116;-42
2021/09/26 09:56:03;;;;;;;11.10;10.02;;;;;;;16.00;71.31;100915.75;5028767;28;20021;-42
2021/09/26 09:58:38;;;;;;;10.55;9.52;;;;;;;15.98;71.24;100914.94;5031178;28;20100;-42
2021/09/26 10:01:06;;;;;;;11.82;10.30;;;;;;;16.00;71.58;100913.09;5029302;28;20021;-42
2021/09/26 10:03:39;;;;;;;11.27;10.13;;;;;;;15.99;71.39;100911.38;5031066;28;20129;-42
2021/09/26 10:06:38;;;;;;;10.63;9.50;;;;;;;16.01;71.28;100908.66;5031532;28;20037;-42
2021/09/26 10:09:21;;;;;;;11.68;10.57;;;;;;;16.01;71.58;100901.53;5027579;28;20044;-42
2021/09/26 10:11:56;;;;;;;11.32;10.23;;;;;;;16.01;71.38;100898.03;5027972;28;20036;-42
2021/09/26 10:14:29;;;;;;;13.10;10.80;;;;;;;16.01;71.80;100903.34;5029672;28;20021;-42
2021/09/26 10:16:56;;;;;;;11.88;10.68;;;;;;;16.00;71.61;100899.78;5031063;28;20013;-42
2021/09/26 10:19:25;;;;;;;11.43;10.13;;;;;;;16.01;71.86;100898.88;5030298;28;20018;-42
2021/09/26 10:21:53;;;;;;;11.68;10.57;;;;;;;16.02;71.83;100897.97;5031017;28;20500;-42
2021/09/26 10:24:25;;;;;;;10.65;9.52;;;;;;;16.04;71.80;100903.22;5029125;28;20040;-43
2021/09/26 10:26:51;;;;;;;12.10;10.98;;;;;;;16.03;71.82;100890.84;5027202;28;20029;-42
2021/09/26 10:29:19;;;;;;;11.13;10.15;;;;;;;16.04;71.74;100905.88;5029580;28;20018;-42
2021/09/26 10:31:49;;;;;;;10.85;9.75;;;;;;;16.05;71.84;100909.44;5028349;28;20100;-42
2021/09/26 10:34:16;;;;;;;10.75;9.65;;;;;;;16.06;72.00;100903.19;5030061;28;20089;-42
2021/09/26 10:36:44;;;;;;;11.65;10.55;;;;;;;16.06;71.89;100906.72;5025873;28;20424;-42
2021/09/26 10:39:11;;;;;;;11.98;10.75;;;;;;;16.07;72.07;100902.28;5030057;28;20510;-42
2021/09/26 10:42:02;;;;;;;10.85;9.85;;;;;;;16.07;71.99;100900.50;5030200;28;20072;-43
2021/09/26 10:44:28;;;;;;;11.13;9.65;;;;;;;16.07;72.09;100889.00;5030203;28;20652;-43
2021/09/26 10:47:21;;;;;;;11.13;10.00;;;;;;;16.08;71.74;100878.31;5029739;28;20116;-42
2021/09/26 10:49:54;;;;;;;12.35;11.15;;;;;;;16.08;72.41;100877.44;5027583;28;20443;-42
2021/09/26 10:52:25;;;;;;;12.02;10.82;;;;;;;16.08;72.08;100873.00;5027545;28;20088;-42
2021/09/26 10:54:51;;;;;;;12.43;10.48;;;;;;;16.09;72.02;100880.03;5027403;28;20056;-43
2021/09/26 10:57:24;;;;;;;11.60;10.50;;;;;;;16.10;72.14;100881.78;5030364;28;20113;-43
2021/09/26 10:59:56;;;;;;;12.25;10.95;;;;;;;16.11;72.32;100880.84;5030834;28;20546;-42
2021/09/26 11:02:21;;;;;;;10.98;9.88;;;;;;;16.12;72.15;100884.41;5027187;28;20092;-42
2021/09/26 11:04:48;;;;;;;12.95;10.98;;;;;;;16.13;72.21;100886.13;5028478;28;20507;-42
2021/09/26 11:07:46;;;;;;;11.18;9.90;;;;;;;16.13;72.05;100887.03;5041899;28;20510;-43
2021/09/26 11:10:25;;;;;;;11.60;10.23;;;;;;;16.15;72.29;100889.63;5022071;28;20454;-42
2021/09/26 11:12:51;;;;;;;15.57;12.93;;;;;;;16.32;76.25;100882.94;5029409;28;20091;-43
2021/09/26 11:15:23;;;;;;;14.63;13.15;;;;;;;16.44;77.81;100879.91;5029718;28;20033;-43
2021/09/26 11:17:53;;;;;;;15.60;13.40;;;;;;;16.60;78.45;100890.97;5029224;28;20406;-43
2021/09/26 11:20:25;;;;;;;14.45;12.95;;;;;;;16.73;78.75;100888.78;5029425;28;20411;-43
2021/09/26 11:23:06;;;;;;;14.68;13.00;;;;;;;16.88;78.82;100883.91;5029761;28;20103;-43
2021/09/26 11:25:56;;;;;;;15.38;12.48;;;;;;;17.00;78.79;100888.81;5040210;28;20029;-43
2021/09/26 11:28:29;;;;;;;15.20;12.55;;;;;;;17.13;78.77;100893.75;5028640;28;20083;-43